createdAt,value
2022-11-29T00:00:03.334Z,51.00
2022-11-29T00:03:19.477Z,46.05
2022-11-29T00:06:12.255Z,46.78
2022-11-29T00:09:01.671Z,43.30
2022-11-29T00:12:06.877Z,49.22
2022-11-29T00:14:53.055Z,47.30
2022-11-29T00:17:42.624Z,50.90
2022-11-29T00:20:29.111Z,55.80
2022-11-29T00:23:21.228Z,48.35
2022-11-29T00:26:08.449Z,52.35
2022-11-29T00:28:55.447Z,46.58
2022-11-29T00:31:42.796Z,44.60
2022-11-29T00:34:29.516Z,41.28
2022-11-29T00:37:19.139Z,41.30
2022-11-29T00:40:07.911Z,43.50
2022-11-29T00:42:54.022Z,50.08
2022-11-29T00:45:41.272Z,39.90
2022-11-29T00:48:27.581Z,44.85
2022-11-29T00:51:14.852Z,47.90
2022-11-29T00:54:01.423Z,43.05
2022-11-29T00:56:48.127Z,42.28
2022-11-29T00:59:34.716Z,40.83
2022-11-29T01:02:22.578Z,46.28
2022-11-29T01:05:09.206Z,46.05
2022-11-29T01:07:56.020Z,46.38
2022-11-29T01:10:42.549Z,46.40
2022-11-29T01:13:29.632Z,45.40
2022-11-29T01:16:17.574Z,48.60
2022-11-29T01:19:04.886Z,39.28
2022-11-29T01:21:53.006Z,45.55
2022-11-29T01:24:39.674Z,45.10
2022-11-29T01:27:26.260Z,42.08
2022-11-29T01:30:13.220Z,43.33
2022-11-29T01:32:59.357Z,43.25
2022-11-29T01:35:54.745Z,45.03
2022-11-29T01:38:42.811Z,42.05
2022-11-29T01:41:32.215Z,47.88
2022-11-29T01:44:18.211Z,45.22
2022-11-29T01:47:05.048Z,40.22
2022-11-29T01:49:51.695Z,40.55
2022-11-29T01:52:38.411Z,41.80
2022-11-29T01:55:24.716Z,42.90
2022-11-29T01:58:11.587Z,42.83
2022-11-29T02:00:58.791Z,46.45
2022-11-29T02:03:45.606Z,42.05
2022-11-29T02:06:32.651Z,44.67
2022-11-29T02:09:21.924Z,46.50
2022-11-29T02:12:12.537Z,40.42
2022-11-29T02:17:59.103Z,42.70
2022-11-29T02:21:07.328Z,45.88
2022-11-29T02:24:02.661Z,44.50
2022-11-29T02:27:13.772Z,41.50
2022-11-29T02:30:09.250Z,48.03
2022-11-29T02:33:13.233Z,41.72
2022-11-29T02:36:27.614Z,39.05
2022-11-29T02:39:14.463Z,47.30
2022-11-29T02:42:03.957Z,43.25
2022-11-29T02:45:28.391Z,42.40
2022-11-29T02:48:28.434Z,44.55
2022-11-29T02:51:25.777Z,44.78
2022-11-29T02:54:36.386Z,47.50
2022-11-29T02:57:40.016Z,41.25
2022-11-29T03:00:26.971Z,44.97
2022-11-29T03:03:22.038Z,41.95
2022-11-29T03:06:18.122Z,48.25
2022-11-29T03:09:20.125Z,45.83
2022-11-29T03:12:10.241Z,50.42
2022-11-29T03:15:16.014Z,52.35
2022-11-29T03:18:26.816Z,46.08
2022-11-29T03:21:24.689Z,38.30
2022-11-29T03:24:21.273Z,46.03
2022-11-29T03:27:14.072Z,50.08
2022-11-29T03:30:05.115Z,47.42
2022-11-29T03:33:10.261Z,52.03
2022-11-29T03:36:07.236Z,41.95
2022-11-29T03:38:58.716Z,41.97
2022-11-29T03:44:40.995Z,43.72
2022-11-29T03:50:23.719Z,46.55
2022-11-29T03:53:34.292Z,44.33
2022-11-29T03:56:32.218Z,48.45
2022-11-29T03:59:33.957Z,47.70
2022-11-29T04:02:58.051Z,44.60
2022-11-29T04:05:54.827Z,47.25
2022-11-29T04:09:02.756Z,46.10
2022-11-29T04:12:04.181Z,44.20
2022-11-29T04:14:56.864Z,48.70
2022-11-29T04:18:01.139Z,44.90
2022-11-29T04:21:01.934Z,46.95
2022-11-29T04:24:28.696Z,46.65
2022-11-29T04:27:33.788Z,45.80
2022-11-29T04:30:22.158Z,48.72
2022-11-29T04:33:17.273Z,51.13
2022-11-29T04:36:29.655Z,47.88
2022-11-29T04:39:56.828Z,48.13
2022-11-29T04:43:14.915Z,52.08
2022-11-29T04:46:07.581Z,58.03
2022-11-29T04:48:59.845Z,48.33
2022-11-29T04:51:55.430Z,52.22
2022-11-29T04:54:57.204Z,48.92
2022-11-29T04:57:47.946Z,51.55
2022-11-29T05:00:47.263Z,44.67
2022-11-29T05:03:49.339Z,54.80
2022-11-29T05:07:06.048Z,51.90
2022-11-29T05:10:25.333Z,55.45
2022-11-29T05:13:29.338Z,49.13
2022-11-29T05:16:25.675Z,51.22
2022-11-29T05:19:27.387Z,57.13
2022-11-29T05:22:40.006Z,55.15
2022-11-29T05:25:46.344Z,61.35
2022-11-29T05:28:51.525Z,56.58
2022-11-29T05:32:00.606Z,55.55
2022-11-29T05:35:06.055Z,53.50
2022-11-29T05:37:55.467Z,63.75
2022-11-29T05:41:23.547Z,55.10
2022-11-29T05:44:14.628Z,58.67
2022-11-29T05:47:06.391Z,57.58
2022-11-29T05:50:30.922Z,58.45
2022-11-29T05:53:55.454Z,50.22
2022-11-29T05:56:51.728Z,58.53
2022-11-29T05:59:39.234Z,56.72
2022-11-29T06:02:34.703Z,54.00
2022-11-29T06:05:36.975Z,56.83
2022-11-29T06:08:51.057Z,56.53
2022-11-29T06:11:56.874Z,53.63
2022-11-29T06:15:01.078Z,51.63
2022-11-29T06:17:53.746Z,55.40
2022-11-29T06:21:16.524Z,53.65
2022-11-29T06:24:25.956Z,57.05
2022-11-29T06:27:34.654Z,55.83
2022-11-29T06:30:24.204Z,59.40
2022-11-29T06:33:36.542Z,50.47
2022-11-29T06:36:28.159Z,55.45
2022-11-29T06:39:15.086Z,56.55
2022-11-29T06:42:01.572Z,49.17
2022-11-29T06:44:47.995Z,53.28
2022-11-29T06:47:40.206Z,55.00
2022-11-29T06:50:47.426Z,55.67
2022-11-29T06:53:44.419Z,65.78
2022-11-29T06:57:04.531Z,52.78
2022-11-29T07:00:00.672Z,60.53
2022-11-29T07:03:15.342Z,64.78
2022-11-29T07:06:12.252Z,56.20
2022-11-29T07:09:14.859Z,65.25
2022-11-29T07:12:01.946Z,70.70
2022-11-29T07:14:49.915Z,61.00
2022-11-29T07:17:49.329Z,70.88
2022-11-29T07:20:48.852Z,85.35
2022-11-29T07:24:05.843Z,99.88
2022-11-29T07:27:05.765Z,73.68
2022-11-29T07:30:01.588Z,69.93
2022-11-29T07:33:12.244Z,63.25
2022-11-29T07:36:23.822Z,58.22
2022-11-29T07:39:51.981Z,58.17
2022-11-29T07:42:44.641Z,61.67
2022-11-29T07:45:34.646Z,61.17
2022-11-29T07:48:21.251Z,63.28
2022-11-29T07:51:07.471Z,71.38
2022-11-29T07:53:54.148Z,94.88
2022-11-29T07:56:40.656Z,68.60
2022-11-29T07:59:27.233Z,69.25
2022-11-29T08:02:29.923Z,63.03
2022-11-29T08:05:18.006Z,60.05
2022-11-29T08:08:05.177Z,63.25
2022-11-29T08:10:52.128Z,59.72
2022-11-29T08:13:38.544Z,65.68
2022-11-29T08:16:27.278Z,58.80
2022-11-29T08:19:13.421Z,62.67
2022-11-29T08:22:02.781Z,58.47
2022-11-29T08:24:49.207Z,60.80
2022-11-29T08:27:37.019Z,61.75
2022-11-29T08:30:24.057Z,52.60
2022-11-29T08:33:10.874Z,62.67
2022-11-29T08:36:04.848Z,55.95
2022-11-29T08:38:57.162Z,60.67
2022-11-29T08:41:49.373Z,59.35
2022-11-29T08:44:41.190Z,61.70
2022-11-29T08:47:36.351Z,57.22
2022-11-29T08:50:23.072Z,66.20
2022-11-29T08:53:27.878Z,67.40
2022-11-29T08:57:04.374Z,59.45
2022-11-29T08:59:23.135Z,56.35
2022-11-29T09:02:12.443Z,75.30
2022-11-29T09:05:06.276Z,60.15
2022-11-29T09:10:40.693Z,61.10
2022-11-29T09:13:27.370Z,62.17
2022-11-29T09:16:18.151Z,59.70
2022-11-29T09:19:05.858Z,56.95
2022-11-29T09:21:52.083Z,66.10
2022-11-29T09:24:38.475Z,68.85
2022-11-29T09:27:24.830Z,67.18
2022-11-29T09:30:14.738Z,60.05
2022-11-29T09:33:04.919Z,64.80
2022-11-29T09:35:51.358Z,69.45
2022-11-29T09:38:38.209Z,61.35
2022-11-29T09:41:31.059Z,268.77
2022-11-29T09:44:43.433Z,210.98
2022-11-29T09:47:56.487Z,68.00
2022-11-29T09:51:01.304Z,64.20
2022-11-29T09:54:03.411Z,63.63
2022-11-29T09:56:53.108Z,80.25
2022-11-29T09:59:43.441Z,64.50
2022-11-29T10:02:47.861Z,69.80
2022-11-29T10:06:07.238Z,75.80
2022-11-29T10:09:03.777Z,66.45
2022-11-29T10:11:53.289Z,71.68
2022-11-29T10:14:52.689Z,59.25
2022-11-29T10:17:43.901Z,67.55
2022-11-29T10:20:36.497Z,60.60
2022-11-29T10:23:32.349Z,58.63
2022-11-29T10:26:20.423Z,69.30
2022-11-29T10:29:07.142Z,69.90
2022-11-29T10:31:56.845Z,67.88
2022-11-29T10:34:46.231Z,59.97
2022-11-29T10:37:33.119Z,57.58
2022-11-29T10:40:22.717Z,56.45
2022-11-29T10:43:09.237Z,63.80
2022-11-29T10:46:03.586Z,66.70
2022-11-29T10:49:02.428Z,61.17
2022-11-29T10:51:49.174Z,76.57
2022-11-29T10:54:45.300Z,60.55
2022-11-29T10:57:41.444Z,61.40
2022-11-29T11:00:28.988Z,60.00
2022-11-29T11:03:30.949Z,64.30
2022-11-29T11:06:45.692Z,68.75
2022-11-29T11:09:41.631Z,62.58
2022-11-29T11:12:35.997Z,61.67
2022-11-29T11:15:32.235Z,67.22
2022-11-29T11:21:32.677Z,65.00
2022-11-29T11:24:34.806Z,79.45
2022-11-29T11:30:37.550Z,72.22
2022-11-29T11:33:45.817Z,65.97
2022-11-29T11:39:34.304Z,60.05
2022-11-29T11:42:41.132Z,77.05
2022-11-29T11:45:39.104Z,109.20
2022-11-29T11:48:31.116Z,73.40
2022-11-29T11:51:27.568Z,93.90
2022-11-29T11:54:17.190Z,125.63
2022-11-29T11:57:10.648Z,115.18
2022-11-29T12:00:07.058Z,97.55
2022-11-29T12:03:40.382Z,99.75
2022-11-29T12:06:54.072Z,85.13
2022-11-29T12:09:53.849Z,66.38
2022-11-29T12:12:45.952Z,85.97
2022-11-29T12:15:38.652Z,65.00
2022-11-29T12:19:12.379Z,80.50
2022-11-29T12:22:07.437Z,74.07
2022-11-29T12:25:04.983Z,80.57
2022-11-29T12:28:05.054Z,68.15
2022-11-29T12:31:10.408Z,74.70
2022-11-29T12:34:22.071Z,113.93
2022-11-29T12:37:32.966Z,80.45
2022-11-29T12:40:44.778Z,73.38
2022-11-29T12:43:52.580Z,99.22
2022-11-29T12:46:39.859Z,77.22
2022-11-29T12:49:47.324Z,86.60
2022-11-29T12:53:23.955Z,74.97
2022-11-29T12:56:30.014Z,75.55
2022-11-29T12:59:38.305Z,101.53
2022-11-29T13:02:35.283Z,75.95
2022-11-29T13:05:25.293Z,74.43
2022-11-29T13:08:30.266Z,90.25
2022-11-29T13:11:37.318Z,80.35
2022-11-29T13:14:42.772Z,82.53
2022-11-29T13:17:35.881Z,88.38
2022-11-29T13:20:38.841Z,83.07
2022-11-29T13:23:45.538Z,74.47
2022-11-29T13:26:42.389Z,98.95
2022-11-29T13:29:32.254Z,78.65
2022-11-29T13:32:30.368Z,73.13
2022-11-29T13:35:22.758Z,68.13
2022-11-29T13:38:23.904Z,77.22
2022-11-29T13:41:23.429Z,117.63
2022-11-29T13:44:31.126Z,85.82
2022-11-29T13:47:19.245Z,73.53
2022-11-29T13:50:18.783Z,85.40
2022-11-29T13:53:23.935Z,103.32
2022-11-29T13:56:26.146Z,71.65
2022-11-29T13:59:24.266Z,78.95
2022-11-29T14:02:30.520Z,89.30
2022-11-29T14:05:25.732Z,84.20
2022-11-29T14:08:42.144Z,85.50
2022-11-29T14:11:52.003Z,81.40
2022-11-29T14:15:18.452Z,71.10
2022-11-29T14:18:09.726Z,80.53
2022-11-29T14:20:57.214Z,70.18
2022-11-29T14:23:44.604Z,80.13
2022-11-29T14:26:34.786Z,86.13
2022-11-29T14:29:47.670Z,99.72
2022-11-29T14:32:56.608Z,84.50
2022-11-29T14:35:47.532Z,98.68
2022-11-29T14:38:53.251Z,105.45
2022-11-29T14:41:55.455Z,130.40
2022-11-29T14:44:47.493Z,127.35
2022-11-29T14:47:47.646Z,98.75
2022-11-29T14:50:37.036Z,90.53
2022-11-29T14:53:33.546Z,98.03
2022-11-29T14:56:29.103Z,100.10
2022-11-29T14:59:50.784Z,97.32
2022-11-29T15:03:02.426Z,90.20
2022-11-29T15:06:01.124Z,100.65
2022-11-29T15:08:54.976Z,104.22
2022-11-29T15:11:51.064Z,98.35
2022-11-29T15:15:18.919Z,85.50
2022-11-29T15:18:46.798Z,114.15
2022-11-29T15:21:58.730Z,87.57
2022-11-29T15:24:52.724Z,164.52
2022-11-29T15:28:25.437Z,176.00
2022-11-29T15:31:15.631Z,176.25
2022-11-29T15:34:02.621Z,79.47
2022-11-29T15:36:49.010Z,135.65
2022-11-29T15:39:38.122Z,127.55
2022-11-29T15:42:28.285Z,108.28
2022-11-29T15:45:29.485Z,113.82
2022-11-29T15:48:19.278Z,121.03
2022-11-29T15:51:15.592Z,116.30
2022-11-29T15:54:34.086Z,119.00
2022-11-29T15:57:26.771Z,115.82
2022-11-29T16:00:23.325Z,113.32
2022-11-29T16:03:26.464Z,90.43
2022-11-29T16:06:23.978Z,110.35
2022-11-29T16:09:13.337Z,106.85
2022-11-29T16:12:18.098Z,95.07
2022-11-29T16:15:08.093Z,114.30
2022-11-29T16:18:22.466Z,87.38
2022-11-29T16:21:25.746Z,125.70
2022-11-29T16:24:20.764Z,93.78
2022-11-29T16:27:08.261Z,88.07
2022-11-29T16:29:55.917Z,91.75
2022-11-29T16:32:45.719Z,105.05
2022-11-29T16:35:43.910Z,106.10
2022-11-29T16:38:32.519Z,135.45
2022-11-29T16:41:33.453Z,146.07
2022-11-29T16:44:44.629Z,131.15
2022-11-29T16:47:52.991Z,109.43
2022-11-29T16:50:41.477Z,85.50
2022-11-29T16:53:40.544Z,92.85
2022-11-29T16:56:28.432Z,81.40
2022-11-29T16:59:26.358Z,76.68
2022-11-29T17:02:21.136Z,81.28
2022-11-29T17:05:09.178Z,80.03
2022-11-29T17:08:00.560Z,75.28
2022-11-29T17:10:50.317Z,66.45
2022-11-29T17:13:40.557Z,73.55
2022-11-29T17:16:31.083Z,131.18
2022-11-29T17:19:19.492Z,140.20
2022-11-29T17:22:11.626Z,115.28
2022-11-29T17:27:44.912Z,161.38
2022-11-29T17:30:35.988Z,90.25
2022-11-29T17:33:33.481Z,133.98
2022-11-29T17:36:28.023Z,99.47
2022-11-29T17:39:20.323Z,121.65
2022-11-29T17:42:13.713Z,141.05
2022-11-29T17:45:02.992Z,104.57
2022-11-29T17:47:55.221Z,189.82
2022-11-29T17:50:50.487Z,90.90
2022-11-29T17:53:36.890Z,109.55
2022-11-29T17:56:25.461Z,80.82
2022-11-29T17:59:13.112Z,99.65
2022-11-29T18:02:02.090Z,105.65
2022-11-29T18:04:50.971Z,109.78
2022-11-29T18:08:00.057Z,141.15
2022-11-29T18:10:46.843Z,122.82
2022-11-29T18:13:40.086Z,115.03
2022-11-29T18:16:34.223Z,111.53
2022-11-29T18:19:24.045Z,125.72
2022-11-29T18:22:19.295Z,90.18
2022-11-29T18:25:36.796Z,79.90
2022-11-29T18:28:12.380Z,84.03
2022-11-29T18:31:04.672Z,116.43
2022-11-29T18:33:53.565Z,97.10
2022-11-29T18:36:56.492Z,129.00
2022-11-29T18:39:45.789Z,134.68
2022-11-29T18:42:37.379Z,113.22
2022-11-29T18:45:26.848Z,107.18
2022-11-29T18:48:14.188Z,99.28
2022-11-29T18:51:03.392Z,114.10
2022-11-29T18:53:50.124Z,125.50
2022-11-29T18:56:37.468Z,140.18
2022-11-29T18:59:29.329Z,121.40
2022-11-29T19:02:20.003Z,156.57
2022-11-29T19:05:09.868Z,147.35
2022-11-29T19:08:01.518Z,144.80
2022-11-29T19:10:51.426Z,199.27
2022-11-29T19:13:38.024Z,141.60
2022-11-29T19:16:29.989Z,126.35
2022-11-29T19:19:21.386Z,111.75
2022-11-29T19:22:08.981Z,133.32
2022-11-29T19:24:57.282Z,118.78
2022-11-29T19:27:47.341Z,89.93
2022-11-29T19:30:44.417Z,98.28
2022-11-29T19:33:33.272Z,104.55
2022-11-29T19:36:34.514Z,104.10
2022-11-29T19:42:10.094Z,85.35
2022-11-29T19:45:17.449Z,91.60
2022-11-29T19:48:14.414Z,95.03
2022-11-29T19:51:05.314Z,151.07
2022-11-29T19:53:59.270Z,125.93
2022-11-29T19:56:50.729Z,101.82
2022-11-29T19:59:40.370Z,97.63
2022-11-29T20:02:29.384Z,90.72
2022-11-29T20:05:16.112Z,85.00
2022-11-29T20:08:06.937Z,87.28
2022-11-29T20:11:14.226Z,93.32
2022-11-29T20:14:04.383Z,78.88
2022-11-29T20:17:02.098Z,83.73
2022-11-29T20:19:58.631Z,85.88
2022-11-29T20:22:56.307Z,80.55
2022-11-29T20:25:52.134Z,84.70
2022-11-29T20:28:42.028Z,82.72
2022-11-29T20:31:31.232Z,91.13
2022-11-29T20:34:30.687Z,83.10
2022-11-29T20:37:57.727Z,84.28
2022-11-29T20:41:23.788Z,85.43
2022-11-29T20:44:16.418Z,76.68
2022-11-29T20:47:29.380Z,89.85
2022-11-29T20:50:27.567Z,79.78
2022-11-29T20:53:26.305Z,78.68
2022-11-29T20:56:14.632Z,77.05
2022-11-29T20:59:02.103Z,79.47
2022-11-29T21:01:50.805Z,83.20
2022-11-29T21:04:39.192Z,82.07
2022-11-29T21:07:26.412Z,83.60
2022-11-29T21:10:15.634Z,74.80
2022-11-29T21:13:06.215Z,85.03
2022-11-29T21:15:55.918Z,83.25
2022-11-29T21:18:45.577Z,87.60
2022-11-29T21:22:03.756Z,89.88
2022-11-29T21:25:14.566Z,88.65
2022-11-29T21:28:01.233Z,85.18
2022-11-29T21:30:50.443Z,78.00
2022-11-29T21:33:47.447Z,82.20
2022-11-29T21:36:36.246Z,78.80
2022-11-29T21:39:29.046Z,79.63
2022-11-29T21:42:21.509Z,89.63
2022-11-29T21:45:15.808Z,83.38
2022-11-29T21:48:29.157Z,86.45
2022-11-29T21:51:18.305Z,83.40
2022-11-29T21:54:09.550Z,74.65
2022-11-29T21:56:59.432Z,77.90
2022-11-29T21:59:46.863Z,79.03
2022-11-29T22:02:41.173Z,77.72
2022-11-29T22:05:28.498Z,81.00
2022-11-29T22:08:16.147Z,86.55
2022-11-29T22:11:19.522Z,77.97
2022-11-29T22:14:14.648Z,83.32
2022-11-29T22:17:13.664Z,78.18
2022-11-29T22:19:59.751Z,81.03
2022-11-29T22:22:49.127Z,83.50
2022-11-29T22:25:44.292Z,75.25
2022-11-29T22:28:34.938Z,79.78
2022-11-29T22:31:21.410Z,80.72
2022-11-29T22:34:08.199Z,77.82
2022-11-29T22:36:57.367Z,77.88
2022-11-29T22:39:44.164Z,82.20
2022-11-29T22:42:30.438Z,77.18
2022-11-29T22:45:17.339Z,78.22
2022-11-29T22:48:13.622Z,84.55
2022-11-29T22:51:08.240Z,75.22
2022-11-29T22:53:57.109Z,77.90
2022-11-29T22:56:45.701Z,75.93
2022-11-29T22:59:34.937Z,66.88
2022-11-29T23:02:24.820Z,73.13
2022-11-29T23:05:17.208Z,71.57
2022-11-29T23:08:04.197Z,70.80
2022-11-29T23:10:57.569Z,77.53
2022-11-29T23:13:47.075Z,81.78
2022-11-29T23:16:33.705Z,80.00
2022-11-29T23:19:28.662Z,84.55
2022-11-29T23:22:15.137Z,76.18
2022-11-29T23:25:01.845Z,78.38
2022-11-29T23:27:51.077Z,73.78
2022-11-29T23:30:37.656Z,74.88
2022-11-29T23:33:29.180Z,72.88
2022-11-29T23:36:18.149Z,75.57
2022-11-29T23:39:07.584Z,77.63
2022-11-29T23:41:53.948Z,79.32
2022-11-29T23:44:40.359Z,66.53
2022-11-29T23:47:27.605Z,82.18
2022-11-29T23:50:14.565Z,73.90
2022-11-29T23:53:01.139Z,79.55
2022-11-29T23:56:01.129Z,81.05
2022-11-29T23:58:47.987Z,80.18
